createdAt,value
2022-08-12T00:00:03.148Z,98529.88
2022-08-12T00:02:49.900Z,98530.13
2022-08-12T00:05:35.842Z,98526.59
2022-08-12T00:08:30.837Z,98529.41
2022-08-12T00:11:22.682Z,98528.91
2022-08-12T00:14:09.093Z,98529.50
2022-08-12T00:16:56.306Z,98531.09
2022-08-12T00:19:42.253Z,98530.41
2022-08-12T00:22:28.872Z,98528.59
2022-08-12T00:25:21.944Z,98527.56
2022-08-12T00:28:28.282Z,98534.13
2022-08-12T00:31:14.568Z,98523.56
2022-08-12T00:34:00.487Z,98523.09
2022-08-12T00:36:50.240Z,98513.56
2022-08-12T00:39:37.100Z,98521.91
2022-08-12T00:42:10.712Z,98512.88
2022-08-12T00:44:45.480Z,98516.59
2022-08-12T00:47:25.312Z,98515.28
2022-08-12T00:49:55.413Z,98510.13
2022-08-12T00:52:23.448Z,98505.59
2022-08-12T00:54:58.857Z,98512.13
2022-08-12T00:57:31.327Z,98517.66
2022-08-12T01:00:10.614Z,98521.53
2022-08-12T01:02:48.782Z,98523.91
2022-08-12T01:05:41.673Z,98518.28
2022-08-12T01:08:27.877Z,98525.81
2022-08-12T01:11:14.678Z,98525.19
2022-08-12T01:13:47.282Z,98529.53
2022-08-12T01:16:18.174Z,98524.22
2022-08-12T01:18:46.035Z,98525.25
2022-08-12T01:21:26.600Z,98526.78
2022-08-12T01:24:31.368Z,98532.13
2022-08-12T01:27:01.264Z,98533.47
2022-08-12T01:29:33.138Z,98527.63
2022-08-12T01:32:05.499Z,98529.97
2022-08-12T01:34:37.602Z,98524.06
2022-08-12T01:37:09.794Z,98523.41
2022-08-12T01:40:35.376Z,98512.03
2022-08-12T01:42:46.125Z,98514.53
2022-08-12T01:45:14.593Z,98512.69
2022-08-12T01:48:05.414Z,98503.66
2022-08-12T01:51:01.518Z,98498.69
2022-08-12T01:53:58.657Z,98499.88
2022-08-12T01:56:27.017Z,98505.88
2022-08-12T01:59:16.962Z,98504.19
2022-08-12T02:01:45.603Z,98506.84
2022-08-12T02:05:05.063Z,98506.06
2022-08-12T02:08:36.273Z,98506.00
2022-08-12T02:11:22.862Z,98499.16
2022-08-12T02:14:11.301Z,98500.31
2022-08-12T02:16:56.770Z,98501.28
2022-08-12T02:19:54.652Z,98501.16
2022-08-12T02:22:31.453Z,98502.47
2022-08-12T02:25:11.038Z,98503.13
2022-08-12T02:27:47.617Z,98499.44
2022-08-12T02:30:19.365Z,98499.25
2022-08-12T02:32:50.944Z,98491.78
2022-08-12T02:35:23.923Z,98491.13
2022-08-12T02:37:56.288Z,98496.16
2022-08-12T02:40:25.600Z,98499.16
2022-08-12T02:42:55.740Z,98492.25
2022-08-12T02:45:38.553Z,98491.09
2022-08-12T02:48:10.517Z,98486.41
2022-08-12T02:50:45.462Z,98480.72
2022-08-12T02:53:13.459Z,98492.09
2022-08-12T02:55:41.057Z,98486.25
2022-08-12T02:58:12.423Z,98479.59
2022-08-12T03:00:43.326Z,98480.91
2022-08-12T03:03:13.866Z,98477.25
2022-08-12T03:06:04.487Z,98477.06
2022-08-12T03:08:35.869Z,98487.25
2022-08-12T03:11:17.845Z,98486.50
2022-08-12T03:13:53.654Z,98489.09
2022-08-12T03:16:21.992Z,98490.22
2022-08-12T03:18:51.397Z,98490.00
2022-08-12T03:21:55.562Z,98489.13
2022-08-12T03:24:09.209Z,98493.72
2022-08-12T03:26:37.653Z,98494.00
2022-08-12T03:29:06.954Z,98492.34
2022-08-12T03:31:34.659Z,98494.22
2022-08-12T03:34:12.622Z,98493.53
2022-08-12T03:36:42.120Z,98491.47
2022-08-12T03:39:37.027Z,98488.22
2022-08-12T03:42:17.077Z,98492.06
2022-08-12T03:45:20.435Z,98488.91
2022-08-12T03:48:18.587Z,98491.34
2022-08-12T03:51:06.181Z,98489.28
2022-08-12T03:53:52.656Z,98501.09
2022-08-12T03:56:38.841Z,98492.81
2022-08-12T03:59:26.052Z,98497.34
2022-08-12T04:01:57.576Z,98492.03
2022-08-12T04:04:33.968Z,98488.56
2022-08-12T04:07:03.256Z,98493.59
2022-08-12T04:09:31.385Z,98500.41
2022-08-12T04:12:17.237Z,98498.81
2022-08-12T04:14:44.808Z,98496.28
2022-08-12T04:17:13.171Z,98491.63
2022-08-12T04:19:40.812Z,98488.97
2022-08-12T04:22:09.480Z,98492.13
2022-08-12T04:24:40.749Z,98489.81
2022-08-12T04:27:12.598Z,98493.53
2022-08-12T04:30:30.340Z,98494.44
2022-08-12T04:32:28.537Z,98494.91
2022-08-12T04:34:56.427Z,98504.44
2022-08-12T04:37:23.967Z,98500.63
2022-08-12T04:39:52.929Z,98497.09
2022-08-12T04:42:21.094Z,98499.16
2022-08-12T04:44:48.837Z,98501.13
2022-08-12T04:47:17.201Z,98506.47
2022-08-12T04:49:46.640Z,98505.78
2022-08-12T04:52:14.123Z,98502.66
2022-08-12T04:54:43.805Z,98505.59
2022-08-12T04:57:11.390Z,98513.97
2022-08-12T04:59:48.444Z,98505.78
2022-08-12T05:02:21.635Z,98508.16
2022-08-12T05:04:51.938Z,98506.50
2022-08-12T05:07:20.539Z,98508.59
2022-08-12T05:10:00.228Z,98509.66
2022-08-12T05:12:38.091Z,98506.72
2022-08-12T05:15:19.484Z,98499.69
2022-08-12T05:17:55.955Z,98498.78
2022-08-12T05:20:26.062Z,98505.72
2022-08-12T05:23:23.872Z,98493.16
2022-08-12T05:25:52.322Z,98495.47
2022-08-12T05:28:19.693Z,98495.81
2022-08-12T05:30:48.703Z,98494.47
2022-08-12T05:33:16.035Z,98493.03
2022-08-12T05:35:45.376Z,98497.34
2022-08-12T05:38:33.187Z,98495.72
2022-08-12T05:41:01.690Z,98488.88
2022-08-12T05:43:29.692Z,98499.81
2022-08-12T05:45:57.108Z,98494.31
2022-08-12T05:48:24.592Z,98498.16
2022-08-12T05:50:53.151Z,98507.00
2022-08-12T05:53:20.508Z,98504.94
2022-08-12T05:55:48.814Z,98507.38
2022-08-12T05:58:16.191Z,98516.56
2022-08-12T06:00:43.605Z,98517.28
2022-08-12T06:03:12.016Z,98516.25
2022-08-12T06:05:43.102Z,98517.50
2022-08-12T06:08:22.312Z,98515.47
2022-08-12T06:10:50.272Z,98514.13
2022-08-12T06:13:28.409Z,98514.25
2022-08-12T06:16:10.542Z,98520.19
2022-08-12T06:18:39.995Z,98518.16
2022-08-12T06:21:12.563Z,98515.81
2022-08-12T06:23:42.692Z,98512.13
2022-08-12T06:26:12.802Z,98523.88
2022-08-12T06:28:43.777Z,98523.75
2022-08-12T06:31:26.975Z,98518.94
2022-08-12T06:34:52.921Z,98523.53
2022-08-12T06:36:43.185Z,98521.31
2022-08-12T06:39:15.223Z,98521.84
2022-08-12T06:42:31.517Z,98523.88
2022-08-12T06:44:50.413Z,98507.91
2022-08-12T06:47:19.522Z,98514.50
2022-08-12T06:49:48.481Z,98514.69
2022-08-12T06:52:17.252Z,98523.16
2022-08-12T06:54:45.719Z,98516.56
2022-08-12T06:58:06.220Z,98512.47
2022-08-12T07:00:00.510Z,98509.78
2022-08-12T07:02:27.826Z,98520.78
2022-08-12T07:04:55.230Z,98516.69
2022-08-12T07:07:22.686Z,98508.06
2022-08-12T07:10:06.559Z,98506.59
2022-08-12T07:12:35.992Z,98508.91
2022-08-12T07:15:03.714Z,98507.47
2022-08-12T07:17:37.272Z,98505.84
2022-08-12T07:20:09.851Z,98505.66
2022-08-12T07:22:37.708Z,98506.53
2022-08-12T07:25:24.051Z,98508.03
2022-08-12T07:27:54.820Z,98502.47
2022-08-12T07:30:23.261Z,98501.75
2022-08-12T07:32:51.634Z,98496.31
2022-08-12T07:35:20.276Z,98499.50
2022-08-12T07:37:50.183Z,98492.69
2022-08-12T07:40:18.732Z,98487.44
2022-08-12T07:42:46.320Z,98480.03
2022-08-12T07:45:14.585Z,98489.75
2022-08-12T07:47:43.494Z,98490.19
2022-08-12T07:50:13.484Z,98485.63
2022-08-12T07:52:43.397Z,98484.31
2022-08-12T07:55:11.728Z,98479.47
2022-08-12T07:57:59.188Z,98483.13
2022-08-12T08:00:28.059Z,98484.25
2022-08-12T08:02:55.674Z,98486.19
2022-08-12T08:05:25.801Z,98477.91
2022-08-12T08:07:55.587Z,98480.56
2022-08-12T08:10:23.191Z,98481.38
2022-08-12T08:12:53.528Z,98475.75
2022-08-12T08:15:38.662Z,98475.19
2022-08-12T08:18:25.808Z,98472.50
2022-08-12T08:20:53.521Z,98470.16
2022-08-12T08:23:21.075Z,98471.13
2022-08-12T08:25:50.086Z,98469.22
2022-08-12T08:28:17.648Z,98466.81
2022-08-12T08:30:47.923Z,98472.25
2022-08-12T08:34:01.589Z,98469.47
2022-08-12T08:36:06.852Z,98478.13
2022-08-12T08:38:58.298Z,98475.63
2022-08-12T08:42:16.789Z,98462.28
2022-08-12T08:44:36.410Z,98467.84
2022-08-12T08:47:05.651Z,98476.50
2022-08-12T08:49:35.166Z,98465.91
2022-08-12T08:52:08.378Z,98470.00
2022-08-12T08:54:37.635Z,98466.84
2022-08-12T08:57:08.063Z,98466.59
2022-08-12T08:59:35.886Z,98473.75
2022-08-12T09:02:03.565Z,98469.59
2022-08-12T09:05:13.859Z,98463.81
2022-08-12T09:10:09.325Z,98461.63
2022-08-12T09:13:16.199Z,98456.50
2022-08-12T09:15:56.079Z,98458.56
2022-08-12T09:21:13.987Z,98451.50
2022-08-12T09:23:59.062Z,98461.44
2022-08-12T09:26:30.593Z,98458.63
2022-08-12T09:29:00.402Z,98447.53
2022-08-12T09:32:07.182Z,98452.75
2022-08-12T09:34:26.467Z,98458.94
2022-08-12T09:37:00.202Z,98441.94
2022-08-12T09:40:04.395Z,98441.16
2022-08-12T09:42:54.355Z,98440.22
2022-08-12T09:46:11.466Z,98437.28
2022-08-12T09:48:21.988Z,98443.38
2022-08-12T09:50:52.113Z,98425.75
2022-08-12T09:53:29.527Z,98429.22
2022-08-12T09:56:57.301Z,98427.84
2022-08-12T09:59:00.551Z,98424.69
2022-08-12T10:01:35.244Z,98430.97
2022-08-12T10:04:19.872Z,98416.97
2022-08-12T10:06:53.923Z,98398.75
2022-08-12T10:09:28.774Z,98404.88
2022-08-12T10:12:32.918Z,98410.25
2022-08-12T10:15:01.876Z,98407.69
2022-08-12T10:17:29.790Z,98395.38
2022-08-12T10:19:59.887Z,98392.66
2022-08-12T10:22:36.597Z,98392.88
2022-08-12T10:26:35.905Z,98389.03
2022-08-12T10:28:33.740Z,98388.06
2022-08-12T10:31:01.678Z,98372.47
2022-08-12T10:33:54.816Z,98384.09
2022-08-12T10:36:40.047Z,98387.81
2022-08-12T10:40:00.114Z,98380.53
2022-08-12T10:42:15.779Z,98373.66
2022-08-12T10:44:48.446Z,98381.50
2022-08-12T10:47:26.062Z,98379.31
2022-08-12T10:50:28.518Z,98368.09
2022-08-12T10:52:57.291Z,98367.50
2022-08-12T10:55:26.064Z,98360.69
2022-08-12T10:58:14.588Z,98354.63
2022-08-12T11:00:55.543Z,98360.94
2022-08-12T11:04:25.447Z,98353.38
2022-08-12T11:07:07.086Z,98352.84
2022-08-12T11:09:07.297Z,98336.53
2022-08-12T11:12:35.332Z,98337.63
2022-08-12T11:14:50.034Z,98335.38
2022-08-12T11:17:43.877Z,98349.97
2022-08-12T11:20:03.564Z,98335.09
2022-08-12T11:22:32.332Z,98333.59
2022-08-12T11:24:59.955Z,98338.03
2022-08-12T11:27:29.528Z,98341.88
2022-08-12T11:30:02.263Z,98341.75
2022-08-12T11:32:38.618Z,98334.59
2022-08-12T11:35:07.374Z,98335.41
2022-08-12T11:37:57.887Z,98326.72
2022-08-12T11:40:24.750Z,98325.25
2022-08-12T11:42:53.141Z,98325.53
2022-08-12T11:45:20.719Z,98320.72
2022-08-12T11:47:49.282Z,98325.72
2022-08-12T11:50:32.079Z,98321.19
2022-08-12T11:52:59.964Z,98307.94
2022-08-12T11:55:29.442Z,98301.31
2022-08-12T11:58:51.087Z,98316.19
2022-08-12T12:03:43.807Z,98327.25
2022-08-12T12:06:16.937Z,98318.38
2022-08-12T12:08:50.544Z,98308.19
2022-08-12T12:11:18.884Z,98325.31
2022-08-12T12:14:08.582Z,98325.50
2022-08-12T12:16:38.326Z,98319.47
2022-08-12T12:19:10.032Z,98318.59
2022-08-12T12:21:47.311Z,98327.31
2022-08-12T12:24:22.141Z,98322.53
2022-08-12T12:27:00.931Z,98320.78
2022-08-12T12:30:19.642Z,98310.31
2022-08-12T12:32:29.074Z,98308.00
2022-08-12T12:35:14.131Z,98305.22
2022-08-12T12:38:03.615Z,98303.34
2022-08-12T12:40:34.372Z,98299.84
2022-08-12T12:43:05.188Z,98304.44
2022-08-12T12:45:33.966Z,98300.53
2022-08-12T12:48:06.065Z,98296.19
2022-08-12T12:50:51.262Z,98287.69
2022-08-12T12:54:06.358Z,98285.25
2022-08-12T12:56:15.467Z,98280.81
2022-08-12T12:58:43.900Z,98278.63
2022-08-12T13:01:26.599Z,98291.66
2022-08-12T13:04:01.862Z,98281.91
2022-08-12T13:06:31.728Z,98293.97
2022-08-12T13:09:02.680Z,98295.59
2022-08-12T13:11:41.874Z,98289.59
2022-08-12T13:14:28.764Z,98286.25
2022-08-12T13:17:02.397Z,98288.41
2022-08-12T13:19:38.769Z,98292.06
2022-08-12T13:22:19.942Z,98279.03
2022-08-12T13:24:55.736Z,98266.81
2022-08-12T13:27:35.616Z,98275.28
2022-08-12T13:30:13.037Z,98270.72
2022-08-12T13:32:42.572Z,98256.66
2022-08-12T13:35:20.161Z,98257.47
2022-08-12T13:37:59.253Z,98257.06
2022-08-12T13:40:34.617Z,98272.47
2022-08-12T13:43:06.857Z,98251.81
2022-08-12T13:45:35.679Z,98264.09
2022-08-12T13:48:08.230Z,98265.81
2022-08-12T13:50:39.045Z,98267.81
2022-08-12T13:53:24.371Z,98267.59
2022-08-12T13:55:59.585Z,98261.47
2022-08-12T13:58:30.543Z,98262.88
2022-08-12T14:00:59.510Z,98262.47
2022-08-12T14:03:28.657Z,98260.16
2022-08-12T14:06:15.797Z,98254.53
2022-08-12T14:08:43.830Z,98256.88
2022-08-12T14:11:13.234Z,98266.38
2022-08-12T14:14:03.404Z,98258.47
2022-08-12T14:16:46.815Z,98262.91
2022-08-12T14:19:22.223Z,98259.88
2022-08-12T14:21:59.847Z,98254.09
2022-08-12T14:24:40.248Z,98256.91
2022-08-12T14:27:10.392Z,98250.75
2022-08-12T14:30:04.098Z,98251.91
2022-08-12T14:32:34.608Z,98246.16
2022-08-12T14:35:03.909Z,98245.81
2022-08-12T14:37:56.508Z,98247.25
2022-08-12T14:40:23.410Z,98251.41
2022-08-12T14:42:57.105Z,98246.03
2022-08-12T14:45:44.643Z,98243.56
2022-08-12T14:48:13.595Z,98237.69
2022-08-12T14:51:09.448Z,98245.06
2022-08-12T14:59:57.588Z,98224.50
2022-08-12T15:02:20.655Z,98228.00
2022-08-12T15:04:54.695Z,98231.28
2022-08-12T15:07:33.427Z,98234.13
2022-08-12T15:10:12.192Z,98237.13
2022-08-12T15:12:40.498Z,98239.97
2022-08-12T15:15:10.268Z,98243.59
2022-08-12T15:17:38.833Z,98243.94
2022-08-12T15:20:32.010Z,98234.72
2022-08-12T15:22:56.506Z,98245.72
2022-08-12T15:25:28.681Z,98234.47
2022-08-12T15:28:03.937Z,98240.00
2022-08-12T15:30:34.017Z,98243.66
2022-08-12T15:33:14.839Z,98244.97
2022-08-12T15:35:52.166Z,98241.41
2022-08-12T15:38:25.192Z,98232.09
2022-08-12T15:40:54.276Z,98234.91
2022-08-12T15:43:51.779Z,98229.63
2022-08-12T15:46:15.261Z,98234.28
2022-08-12T15:48:46.478Z,98231.59
2022-08-12T15:51:57.450Z,98251.38
2022-08-12T15:54:30.882Z,98247.25
2022-08-12T15:57:05.647Z,98255.81
2022-08-12T16:00:00.099Z,98248.66
2022-08-12T16:02:21.332Z,98254.53
2022-08-12T16:04:51.462Z,98247.06
2022-08-12T16:07:25.903Z,98243.13
2022-08-12T16:10:05.518Z,98246.00
2022-08-12T16:12:42.296Z,98235.06
2022-08-12T16:15:13.387Z,98244.34
2022-08-12T16:18:15.320Z,98235.66
2022-08-12T16:20:33.141Z,98232.88
2022-08-12T16:23:36.597Z,98230.66
2022-08-12T16:26:06.410Z,98242.13
2022-08-12T16:28:42.006Z,98229.72
2022-08-12T16:31:14.506Z,98231.84
2022-08-12T16:33:59.515Z,98222.38
2022-08-12T16:36:29.245Z,98223.47
2022-08-12T16:38:56.847Z,98225.47
2022-08-12T16:41:25.630Z,98221.78
2022-08-12T16:43:55.753Z,98223.38
2022-08-12T16:46:32.530Z,98224.50
2022-08-12T16:49:08.805Z,98231.50
2022-08-12T16:51:46.084Z,98223.91
2022-08-12T16:54:16.441Z,98224.84
2022-08-12T16:56:55.489Z,98220.09
2022-08-12T16:59:53.634Z,98226.22
2022-08-12T17:02:31.902Z,98220.06
2022-08-12T17:05:03.184Z,98213.38
2022-08-12T17:07:36.842Z,98214.19
2022-08-12T17:10:09.549Z,98221.22
2022-08-12T17:12:39.950Z,98216.28
2022-08-12T17:15:51.233Z,98227.13
2022-08-12T17:18:43.943Z,98216.28
2022-08-12T17:20:47.491Z,98213.91
2022-08-12T17:23:16.845Z,98209.13
2022-08-12T17:25:46.461Z,98211.84
2022-08-12T17:28:16.872Z,98210.44
2022-08-12T17:30:45.190Z,98211.72
2022-08-12T17:33:24.698Z,98210.72
2022-08-12T17:35:53.289Z,98209.78
2022-08-12T17:38:21.061Z,98214.00
2022-08-12T17:40:48.993Z,98220.47
2022-08-12T17:43:55.882Z,98216.22
2022-08-12T17:46:12.468Z,98225.91
2022-08-12T17:48:54.926Z,98227.44
2022-08-12T17:51:24.387Z,98225.41
2022-08-12T17:54:10.667Z,98226.56
2022-08-12T17:56:43.280Z,98224.09
2022-08-12T17:59:12.565Z,98227.13
2022-08-12T18:01:44.091Z,98229.28
2022-08-12T18:04:21.230Z,98228.03
2022-08-12T18:06:52.931Z,98227.03
2022-08-12T18:09:24.739Z,98225.16
2022-08-12T18:12:24.575Z,98226.94
2022-08-12T18:15:00.363Z,98232.44
2022-08-12T18:17:29.091Z,98234.34
2022-08-12T18:20:06.429Z,98234.31
2022-08-12T18:22:36.329Z,98237.50
2022-08-12T18:26:12.636Z,98246.75
2022-08-12T18:28:15.063Z,98242.41
2022-08-12T18:30:53.084Z,98248.22
2022-08-12T18:33:26.734Z,98254.72
2022-08-12T18:35:56.666Z,98252.28
2022-08-12T18:38:26.909Z,98265.66
2022-08-12T18:41:21.461Z,98272.28
2022-08-12T18:44:02.964Z,98266.44
2022-08-12T18:46:35.967Z,98276.41
2022-08-12T18:49:18.350Z,98276.22
2022-08-12T18:51:55.455Z,98271.88
2022-08-12T18:54:35.474Z,98281.66
2022-08-12T18:57:15.440Z,98276.91
2022-08-12T19:00:00.076Z,98275.91
2022-08-12T19:02:32.774Z,98278.44
2022-08-12T19:05:08.209Z,98278.44
2022-08-12T19:07:49.587Z,98285.56
2022-08-12T19:10:25.675Z,98289.31
2022-08-12T19:13:15.637Z,98293.88
2022-08-12T19:15:48.767Z,98298.47
2022-08-12T19:18:16.901Z,98298.69
2022-08-12T19:20:48.011Z,98310.94
2022-08-12T19:23:21.485Z,98310.53
2022-08-12T19:26:00.982Z,98314.69
2022-08-12T19:28:35.361Z,98326.06
2022-08-12T19:31:56.092Z,98325.00
2022-08-12T19:34:56.401Z,98326.00
2022-08-12T19:37:27.480Z,98321.22
2022-08-12T19:40:07.885Z,98324.28
2022-08-12T19:42:42.721Z,98324.91
2022-08-12T19:45:14.046Z,98325.47
2022-08-12T19:47:44.729Z,98334.34
2022-08-12T19:50:19.742Z,98330.75
2022-08-12T19:52:51.127Z,98326.81
2022-08-12T19:55:21.789Z,98338.34
2022-08-12T19:58:02.604Z,98330.25
2022-08-12T20:00:34.606Z,98333.72
2022-08-12T20:03:04.231Z,98330.16
2022-08-12T20:06:06.941Z,98337.00
2022-08-12T20:08:34.148Z,98332.13
2022-08-12T20:12:14.635Z,98333.69
2022-08-12T20:14:00.226Z,98334.72
2022-08-12T20:16:52.982Z,98333.88
2022-08-12T20:19:18.089Z,98337.34
2022-08-12T20:21:45.583Z,98333.09
2022-08-12T20:24:14.215Z,98334.84
2022-08-12T20:26:43.206Z,98333.16
2022-08-12T20:29:12.006Z,98328.28
2022-08-12T20:31:40.664Z,98337.88
2022-08-12T20:34:09.378Z,98335.84
2022-08-12T20:36:44.830Z,98333.31
2022-08-12T20:39:35.832Z,98331.59
2022-08-12T20:42:07.578Z,98337.44
2022-08-12T20:44:40.164Z,98340.63
2022-08-12T20:47:18.074Z,98340.75
2022-08-12T20:49:54.870Z,98337.72
2022-08-12T20:52:29.817Z,98339.50
2022-08-12T20:54:58.153Z,98343.28
2022-08-12T20:57:38.495Z,98338.03
2022-08-12T21:00:22.697Z,98343.97
2022-08-12T21:03:15.919Z,98339.03
2022-08-12T21:06:13.687Z,98334.03
2022-08-12T21:08:42.808Z,98334.69
2022-08-12T21:11:10.386Z,98333.88
2022-08-12T21:13:41.898Z,98336.25
2022-08-12T21:16:10.390Z,98333.88
2022-08-12T21:18:38.370Z,98340.41
2022-08-12T21:21:06.672Z,98337.72
2022-08-12T21:23:36.865Z,98340.59
2022-08-12T21:26:11.270Z,98338.28
2022-08-12T21:28:39.749Z,98347.88
2022-08-12T21:32:35.031Z,98341.38
2022-08-12T21:34:07.809Z,98345.47
2022-08-12T21:36:39.906Z,98342.50
2022-08-12T21:39:27.910Z,98351.84
2022-08-12T21:42:06.939Z,98349.63
2022-08-12T21:45:46.702Z,98349.72
2022-08-12T21:47:25.779Z,98354.72
2022-08-12T21:50:04.293Z,98358.13
2022-08-12T21:52:42.197Z,98356.31
2022-08-12T21:55:19.241Z,98351.88
2022-08-12T21:57:54.632Z,98358.16
2022-08-12T22:00:33.507Z,98351.31
2022-08-12T22:04:03.591Z,98354.97
2022-08-12T22:06:43.329Z,98354.56
2022-08-12T22:09:15.623Z,98355.84
2022-08-12T22:11:49.306Z,98356.03
2022-08-12T22:14:24.930Z,98356.91
2022-08-12T22:16:55.000Z,98352.88
2022-08-12T22:19:24.030Z,98353.81
2022-08-12T22:21:54.120Z,98357.03
2022-08-12T22:24:27.248Z,98362.09
2022-08-12T22:27:14.323Z,98357.56
2022-08-12T22:30:16.883Z,98359.97
2022-08-12T22:32:51.661Z,98359.84
2022-08-12T22:35:56.000Z,98359.81
2022-08-12T22:38:20.947Z,98370.13
2022-08-12T22:40:50.794Z,98370.44
2022-08-12T22:44:00.217Z,98375.78
2022-08-12T22:46:53.077Z,98375.28
2022-08-12T22:49:36.293Z,98368.72
2022-08-12T22:52:12.569Z,98365.91
2022-08-12T22:55:00.203Z,98363.81
2022-08-12T22:57:53.521Z,98360.09
2022-08-12T23:00:23.909Z,98363.31
2022-08-12T23:02:58.336Z,98359.28
2022-08-12T23:05:57.236Z,98361.91
2022-08-12T23:08:18.880Z,98361.56
2022-08-12T23:10:47.669Z,98355.34
2022-08-12T23:13:38.720Z,98359.00
2022-08-12T23:16:28.003Z,98356.63
2022-08-12T23:19:01.524Z,98352.84
2022-08-12T23:22:05.825Z,98352.91
2022-08-12T23:24:35.337Z,98350.94
2022-08-12T23:27:21.546Z,98346.53
2022-08-12T23:30:05.924Z,98341.22
2022-08-12T23:32:37.249Z,98345.00
2022-08-12T23:35:06.880Z,98341.47
2022-08-12T23:37:46.978Z,98346.66
2022-08-12T23:40:22.540Z,98342.31
2022-08-12T23:42:54.867Z,98345.84
2022-08-12T23:45:30.852Z,98344.50
2022-08-12T23:48:00.720Z,98352.25
2022-08-12T23:50:33.536Z,98353.16
2022-08-12T23:53:03.475Z,98344.97
2022-08-12T23:55:40.936Z,98352.09
2022-08-12T23:58:22.423Z,98348.03
